aviador You're here:

KTPA Decoded Metar

TAMPA in FL, USA
Report Time2018-06-17 20:53:00
UTC Time2018-06-17 21:37:33
Flight Rules vfr VFR
Wind220° at 07 kt
W.Decomp.*RWY 19: 5.7 kt HW 4.0 kt RCW
RWY 28: 4.0 kt HW 5.7 kt LCW
W.Rank220° ranks 19
Current wind is below 220° avg. (7.0)
Visibility9999 m
Phenomena:N/A
Clouds:Broken TCU 055 Hf
Broken 350 Hf
Expected CloudBase > 4,800 ft AGL from Temp-Dew spread
Ceiling5,500 ft
Temp33°C (ISA +18)
Dew Point21°C (49% RH)
Heat Index36.0°C
QNH1018 hPa
Density Alt2,254 ft
Elevation36 ft
Report Wrong Elevation
Raw Report
METAR KTPA 172053Z 22007KT 10SM BKN055TCU BKN350 33/21 A3007 RMK AO2
LTG DSNT N SLP182 CB DVLPG DSNT N TCU ALQDS 60000 T03280206
56015=

Extra information for KTPA:More info

Metar Taf Metar & Taf Last 4 Metars F.Rules Stats Wind Profile Meteogram Temp Stats Airport Information Weather charts Add Link Nearby VenuesMetar ALERT Operation Metar Decoded Social comments

AIRNAV info for KTPA